createdAt,value
2018-11-29T00:02:04.563Z,25.27
2018-11-29T00:06:16.648Z,31.30
2018-11-29T00:10:28.860Z,22.67
2018-11-29T00:14:40.998Z,30.60
2018-11-29T00:18:53.103Z,21.53
2018-11-29T00:23:05.391Z,26.37
2018-11-29T00:27:17.506Z,27.83
2018-11-29T00:31:29.821Z,19.60
2018-11-29T00:35:42.022Z,22.13
2018-11-29T00:39:54.356Z,24.37
2018-11-29T00:44:06.510Z,30.97
2018-11-29T00:48:18.650Z,30.87
2018-11-29T00:52:30.877Z,30.00
2018-11-29T00:56:43.082Z,29.33
2018-11-29T01:00:55.493Z,35.60
2018-11-29T01:05:07.970Z,21.80
2018-11-29T01:09:20.255Z,30.10
2018-11-29T01:13:32.581Z,34.27
2018-11-29T01:17:44.702Z,34.10
2018-11-29T01:21:56.939Z,30.37
2018-11-29T01:26:09.187Z,31.33
2018-11-29T01:30:22.001Z,29.30
2018-11-29T01:34:34.304Z,37.53
2018-11-29T01:38:46.599Z,26.23
2018-11-29T01:42:59.978Z,28.10
2018-11-29T01:47:12.549Z,25.70
2018-11-29T01:51:24.896Z,31.63
2018-11-29T01:55:37.141Z,28.87
2018-11-29T01:59:49.315Z,37.00
2018-11-29T02:04:01.544Z,29.67
2018-11-29T02:08:13.625Z,33.67
2018-11-29T02:12:25.826Z,33.93
2018-11-29T02:16:37.946Z,29.50
2018-11-29T02:20:50.267Z,36.30
2018-11-29T02:25:02.491Z,45.30
2018-11-29T02:29:14.614Z,51.97
2018-11-29T02:33:26.752Z,60.27
2018-11-29T02:37:38.862Z,48.90
2018-11-29T02:41:51.114Z,51.97
2018-11-29T02:46:03.364Z,38.20
2018-11-29T02:50:15.502Z,39.80
2018-11-29T02:54:27.540Z,41.67
2018-11-29T02:58:39.286Z,37.63
2018-11-29T03:02:51.671Z,26.97
2018-11-29T03:07:03.868Z,29.77
2018-11-29T03:11:16.119Z,27.20
2018-11-29T03:15:28.179Z,29.60
2018-11-29T03:19:40.416Z,31.37
2018-11-29T03:23:52.554Z,35.13
2018-11-29T03:28:04.726Z,41.07
2018-11-29T03:32:17.279Z,34.20
2018-11-29T03:36:29.313Z,32.63
2018-11-29T03:40:41.410Z,37.13
2018-11-29T03:44:53.565Z,41.77
2018-11-29T03:49:05.786Z,30.60
2018-11-29T03:53:17.965Z,41.20
2018-11-29T03:57:30.192Z,37.93
2018-11-29T04:01:42.505Z,40.03
2018-11-29T04:05:54.705Z,29.40
2018-11-29T04:10:07.514Z,38.60
2018-11-29T04:14:19.653Z,26.67
2018-11-29T04:18:31.708Z,22.23
2018-11-29T04:22:43.881Z,31.47
2018-11-29T04:26:55.998Z,30.43
2018-11-29T04:31:08.445Z,29.93
2018-11-29T04:35:20.494Z,32.50
2018-11-29T04:39:32.582Z,26.30
2018-11-29T04:43:44.931Z,27.60
2018-11-29T04:47:57.129Z,34.43
2018-11-29T04:52:09.356Z,33.03
2018-11-29T04:56:21.452Z,37.17
2018-11-29T05:00:33.631Z,33.90
2018-11-29T05:04:45.743Z,30.37
2018-11-29T05:08:57.981Z,30.20
2018-11-29T05:13:10.209Z,24.70
2018-11-29T05:17:22.326Z,26.33
2018-11-29T05:21:34.467Z,24.60
2018-11-29T05:25:46.497Z,26.10
2018-11-29T05:29:58.723Z,25.70
2018-11-29T05:34:10.938Z,29.43
2018-11-29T05:38:23.183Z,24.70
2018-11-29T05:42:35.439Z,19.77
2018-11-29T05:46:47.765Z,24.67
2018-11-29T05:51:00.068Z,19.77
2018-11-29T05:55:13.188Z,25.37
2018-11-29T05:59:25.207Z,28.83
2018-11-29T06:03:37.333Z,25.03
2018-11-29T06:07:49.384Z,27.47
2018-11-29T06:12:01.501Z,28.23
2018-11-29T06:16:13.551Z,25.23
2018-11-29T06:20:25.765Z,29.23
2018-11-29T06:24:37.952Z,26.33
2018-11-29T06:28:50.183Z,26.30
2018-11-29T06:33:02.489Z,20.70
2018-11-29T06:37:14.802Z,21.10
2018-11-29T06:41:27.167Z,29.73
2018-11-29T06:45:39.333Z,20.63
2018-11-29T06:49:51.529Z,22.67
2018-11-29T06:54:03.805Z,27.17
2018-11-29T06:58:16.931Z,32.70
2018-11-29T07:02:28.211Z,26.43
2018-11-29T07:06:40.271Z,20.10
2018-11-29T07:10:52.661Z,22.83
2018-11-29T07:15:04.772Z,30.30
2018-11-29T07:19:16.917Z,31.87
2018-11-29T07:23:29.112Z,38.60
2018-11-29T07:27:41.511Z,32.40
2018-11-29T07:31:53.810Z,35.27
2018-11-29T07:36:05.849Z,40.70
2018-11-29T07:40:19.066Z,38.47
2018-11-29T07:44:31.107Z,39.67
2018-11-29T07:48:43.182Z,38.57
2018-11-29T07:52:55.384Z,52.27
2018-11-29T07:57:07.380Z,40.87
2018-11-29T08:01:19.525Z,39.77
2018-11-29T08:05:31.819Z,49.80
2018-11-29T08:09:44.068Z,38.50
2018-11-29T08:13:56.265Z,48.53
2018-11-29T08:18:08.842Z,36.50
2018-11-29T08:22:21.050Z,33.93
2018-11-29T08:26:33.314Z,44.73
2018-11-29T08:30:45.418Z,42.63
2018-11-29T08:34:57.626Z,30.33
2018-11-29T08:39:11.993Z,46.47
2018-11-29T08:43:24.115Z,38.77
2018-11-29T08:47:37.328Z,28.73
2018-11-29T08:51:49.475Z,25.03
2018-11-29T08:56:01.563Z,20.10
2018-11-29T09:00:18.871Z,21.87
2018-11-29T09:04:30.927Z,24.80
2018-11-29T09:08:42.937Z,22.23
2018-11-29T09:12:55.054Z,25.37
2018-11-29T09:17:07.862Z,16.47
2018-11-29T09:21:20.369Z,18.03
2018-11-29T09:25:32.621Z,19.40
2018-11-29T09:29:44.851Z,16.57
2018-11-29T09:33:57.162Z,18.47
2018-11-29T09:38:09.466Z,17.77
2018-11-29T09:42:21.802Z,22.33
2018-11-29T09:46:34.139Z,15.03
2018-11-29T09:50:46.347Z,18.57
2018-11-29T09:54:58.421Z,18.30
2018-11-29T09:59:10.651Z,16.50
2018-11-29T10:03:22.874Z,18.00
2018-11-29T10:07:34.922Z,17.90
2018-11-29T10:57:07.874Z,23.00
2018-11-29T11:01:24.713Z,20.77
2018-11-29T11:05:36.856Z,25.20
2018-11-29T11:09:49.222Z,23.80
2018-11-29T11:14:01.402Z,17.87
2018-11-29T11:18:14.317Z,26.87
2018-11-29T11:22:26.381Z,26.73
2018-11-29T11:26:38.229Z,23.00
2018-11-29T11:30:50.337Z,20.13
2018-11-29T11:35:02.440Z,28.43
2018-11-29T11:39:14.651Z,25.10
2018-11-29T11:43:26.873Z,23.93
2018-11-29T11:47:38.707Z,24.80
2018-11-29T11:51:50.626Z,23.50
2018-11-29T11:56:02.813Z,27.47
2018-11-29T12:00:16.811Z,28.10
2018-11-29T12:04:29.227Z,25.40
2018-11-29T12:08:41.436Z,16.70
2018-11-29T12:12:53.758Z,26.30
2018-11-29T12:17:05.967Z,27.93
2018-11-29T12:21:18.275Z,34.77
2018-11-29T12:25:30.496Z,33.03
2018-11-29T12:29:43.608Z,27.90
2018-11-29T12:33:55.488Z,26.70
2018-11-29T12:38:07.600Z,21.77
2018-11-29T12:42:19.589Z,19.17
2018-11-29T12:46:31.661Z,26.37
2018-11-29T12:50:43.866Z,22.43
2018-11-29T12:54:56.223Z,23.03
2018-11-29T12:59:08.453Z,25.80
2018-11-29T13:03:20.698Z,28.87
2018-11-29T13:07:33.014Z,32.83
2018-11-29T13:11:45.352Z,37.30
2018-11-29T13:15:57.452Z,20.90
2018-11-29T13:20:11.644Z,23.47
2018-11-29T13:24:23.538Z,19.27
2018-11-29T13:28:35.506Z,23.60
2018-11-29T13:32:47.624Z,22.70
2018-11-29T13:36:59.726Z,26.17
2018-11-29T13:41:11.946Z,29.90
2018-11-29T13:45:24.015Z,19.43
2018-11-29T13:49:36.248Z,24.30
2018-11-29T13:53:48.488Z,22.80
2018-11-29T13:58:00.577Z,25.83
2018-11-29T14:02:12.682Z,18.30
2018-11-29T14:06:24.914Z,22.53
2018-11-29T14:10:37.002Z,21.43
2018-11-29T14:14:49.316Z,25.37
2018-11-29T14:19:01.520Z,24.03
2018-11-29T14:23:13.538Z,28.27
2018-11-29T14:27:25.636Z,21.83
2018-11-29T14:31:38.530Z,24.40
2018-11-29T14:35:50.306Z,23.07
2018-11-29T14:40:02.278Z,21.97
2018-11-29T14:44:14.372Z,21.93
2018-11-29T14:48:26.583Z,19.27
2018-11-29T14:52:38.802Z,23.73
2018-11-29T14:56:51.098Z,24.03
2018-11-29T15:01:03.340Z,33.90
2018-11-29T15:05:17.354Z,20.20
2018-11-29T15:09:29.622Z,24.70
2018-11-29T15:13:41.430Z,18.83
2018-11-29T15:17:54.250Z,24.37
2018-11-29T15:22:06.396Z,23.20
2018-11-29T15:26:18.312Z,22.90
2018-11-29T15:30:30.277Z,22.67
2018-11-29T15:34:42.332Z,26.50
2018-11-29T15:38:54.565Z,28.10
2018-11-29T15:43:06.789Z,31.80
2018-11-29T15:47:18.764Z,32.47
2018-11-29T15:51:30.972Z,31.73
2018-11-29T15:55:43.209Z,34.40
2018-11-29T15:59:55.294Z,28.03
2018-11-29T16:04:07.523Z,32.60
2018-11-29T16:08:19.504Z,34.70
2018-11-29T16:12:31.725Z,24.00
2018-11-29T16:16:43.925Z,28.33
2018-11-29T16:20:56.282Z,19.83
2018-11-29T16:25:10.128Z,28.43
2018-11-29T16:29:22.198Z,25.07
2018-11-29T16:33:36.405Z,30.27
2018-11-29T16:37:48.382Z,38.70
2018-11-29T16:42:00.363Z,33.27
2018-11-29T16:46:12.470Z,25.40
2018-11-29T16:50:24.691Z,27.43
2018-11-29T16:54:37.004Z,34.90
2018-11-29T16:58:49.127Z,25.50
2018-11-29T17:03:01.199Z,28.80
2018-11-29T17:07:13.422Z,29.57
2018-11-29T17:11:25.767Z,34.63
2018-11-29T17:15:37.750Z,29.93
2018-11-29T17:19:49.851Z,32.37
2018-11-29T17:24:02.072Z,40.03
2018-11-29T17:28:14.299Z,29.33
2018-11-29T17:32:26.534Z,29.63
2018-11-29T17:36:38.703Z,33.13
2018-11-29T17:40:50.924Z,34.50
2018-11-29T17:45:03.010Z,30.87
2018-11-29T17:49:15.209Z,29.70
2018-11-29T17:53:27.523Z,23.43
2018-11-29T17:57:39.742Z,27.10
2018-11-29T18:01:51.973Z,30.53
2018-11-29T18:06:04.071Z,28.53
2018-11-29T18:10:18.720Z,27.27
2018-11-29T18:14:30.677Z,24.37
2018-11-29T18:18:42.596Z,28.90
2018-11-29T18:22:54.549Z,28.23
2018-11-29T18:27:06.646Z,23.03
2018-11-29T18:31:19.002Z,30.37
2018-11-29T18:35:31.084Z,32.50
2018-11-29T18:39:43.302Z,26.30
2018-11-29T18:43:55.520Z,21.07
2018-11-29T18:48:07.728Z,25.40
2018-11-29T18:52:19.823Z,25.93
2018-11-29T18:56:31.987Z,28.07
2018-11-29T19:00:44.023Z,29.53
2018-11-29T19:04:56.223Z,27.10
2018-11-29T19:09:09.810Z,25.63
2018-11-29T19:13:22.199Z,24.07
2018-11-29T19:17:33.962Z,29.47
2018-11-29T19:21:45.883Z,24.67
2018-11-29T19:25:57.815Z,26.40
2018-11-29T19:30:16.125Z,34.07
2018-11-29T19:34:28.375Z,29.60
2018-11-29T19:38:40.495Z,34.97
2018-11-29T19:42:52.696Z,29.70
2018-11-29T19:47:04.926Z,29.27
2018-11-29T19:51:17.126Z,34.10
2018-11-29T19:55:30.136Z,26.93
2018-11-29T19:59:42.400Z,23.67
2018-11-29T20:03:54.232Z,25.40
2018-11-29T20:08:06.392Z,24.50
2018-11-29T20:12:18.320Z,24.43
2018-11-29T20:16:30.290Z,30.47
2018-11-29T20:20:42.386Z,29.43
2018-11-29T20:24:54.618Z,25.27
2018-11-29T20:29:06.720Z,31.13
2018-11-29T20:33:18.911Z,25.63
2018-11-29T20:37:31.112Z,37.60
2018-11-29T20:41:43.438Z,26.83
2018-11-29T20:45:58.834Z,28.83
2018-11-29T20:50:14.693Z,31.40
2018-11-29T20:54:24.894Z,23.70
2018-11-29T20:58:37.007Z,26.33
2018-11-29T21:02:49.109Z,32.73
2018-11-29T21:07:01.235Z,31.37
2018-11-29T21:11:13.408Z,29.80
2018-11-29T21:15:25.636Z,28.30
2018-11-29T21:19:37.832Z,21.57
2018-11-29T21:23:50.070Z,21.93
2018-11-29T21:28:02.168Z,20.40
2018-11-29T21:32:14.274Z,17.70
2018-11-29T21:36:26.566Z,20.13
2018-11-29T21:40:38.800Z,28.83
2018-11-29T21:44:51.054Z,23.17
2018-11-29T21:49:03.260Z,25.37
2018-11-29T21:53:15.403Z,28.50
2018-11-29T21:57:27.091Z,18.13
2018-11-29T22:01:38.985Z,22.73
2018-11-29T22:05:51.037Z,31.97
2018-11-29T22:10:03.166Z,24.50
2018-11-29T22:14:15.362Z,19.60
2018-11-29T22:18:27.716Z,16.87
2018-11-29T22:22:39.736Z,22.87
2018-11-29T22:26:51.687Z,24.17
2018-11-29T22:31:03.894Z,29.83
2018-11-29T22:35:16.095Z,21.30
2018-11-29T22:39:28.323Z,25.57
2018-11-29T22:43:40.612Z,28.33
2018-11-29T22:47:52.751Z,25.10
2018-11-29T22:52:04.978Z,26.90
2018-11-29T22:56:17.117Z,22.53
2018-11-29T23:00:34.150Z,21.30
2018-11-29T23:04:46.116Z,29.37
2018-11-29T23:08:58.200Z,21.33
2018-11-29T23:13:10.410Z,26.07
2018-11-29T23:17:22.738Z,24.83
2018-11-29T23:21:34.814Z,22.27
2018-11-29T23:30:03.882Z,21.30
2018-11-29T23:34:15.998Z,18.10
2018-11-29T23:38:28.066Z,20.33
2018-11-29T23:42:40.265Z,24.63
2018-11-29T23:46:52.480Z,24.13
2018-11-29T23:51:04.789Z,27.73
2018-11-29T23:55:19.238Z,25.90
2018-11-29T23:59:31.064Z,28.83
